sensor_id;sensor_type;location;lat;lon;timestamp;pressure;altitude;pressure_sealevel;temperature;humidity
77011;BME280;65945;53.148;17.956;2023-04-01T00:01:14;99130.71;;;9.32;83.42
77011;BME280;65945;53.148;17.956;2023-04-01T00:03:42;99127.81;;;9.30;83.53
77011;BME280;65945;53.148;17.956;2023-04-01T00:06:12;99127.73;;;9.29;83.68
77011;BME280;65945;53.148;17.956;2023-04-01T00:08:39;99127.13;;;9.28;83.69
77011;BME280;65945;53.148;17.956;2023-04-01T00:11:06;99124.46;;;9.28;83.70
77011;BME280;65945;53.148;17.956;2023-04-01T00:13:33;99122.71;;;9.28;83.84
77011;BME280;65945;53.148;17.956;2023-04-01T00:15:59;99122.55;;;9.27;83.99
77011;BME280;65945;53.148;17.956;2023-04-01T00:18:27;99120.73;;;9.28;83.94
77011;BME280;65945;53.148;17.956;2023-04-01T00:20:54;99124.91;;;9.29;84.05
77011;BME280;65945;53.148;17.956;2023-04-01T00:23:21;99121.34;;;9.29;84.03
77011;BME280;65945;53.148;17.956;2023-04-01T00:25:48;99120.41;;;9.29;84.02
77011;BME280;65945;53.148;17.956;2023-04-01T00:28:17;99120.05;;;9.30;84.04
77011;BME280;65945;53.148;17.956;2023-04-01T00:30:44;99120.95;;;9.30;84.21
77011;BME280;65945;53.148;17.956;2023-04-01T00:33:12;99121.34;;;9.30;84.10
77011;BME280;65945;53.148;17.956;2023-04-01T00:35:39;99118.20;;;9.30;84.01
77011;BME280;65945;53.148;17.956;2023-04-01T00:38:06;99120.05;;;9.31;84.20
77011;BME280;65945;53.148;17.956;2023-04-01T00:40:40;99117.98;;;9.33;84.07
77011;BME280;65945;53.148;17.956;2023-04-01T00:43:18;99119.05;;;9.35;83.98
77011;BME280;65945;53.148;17.956;2023-04-01T00:45:47;99117.54;;;9.35;84.20
77011;BME280;65945;53.148;17.956;2023-04-01T00:48:17;99116.16;;;9.35;84.19
77011;BME280;65945;53.148;17.956;2023-04-01T00:50:49;99118.30;;;9.37;84.15
77011;BME280;65945;53.148;17.956;2023-04-01T00:53:19;99117.02;;;9.40;84.05
77011;BME280;65945;53.148;17.956;2023-04-01T00:55:51;99115.71;;;9.41;84.06
77011;BME280;65945;53.148;17.956;2023-04-01T00:58:21;99115.49;;;9.43;83.99
77011;BME280;65945;53.148;17.956;2023-04-01T01:00:51;99113.80;;;9.44;84.03
77011;BME280;65945;53.148;17.956;2023-04-01T01:03:18;99114.80;;;9.45;84.03
77011;BME280;65945;53.148;17.956;2023-04-01T01:06:20;99114.49;;;9.44;84.03
77011;BME280;65945;53.148;17.956;2023-04-01T01:09:12;99107.79;;;9.43;84.02
77011;BME280;65945;53.148;17.956;2023-04-01T01:31:23;99105.90;;;9.19;85.22
77011;BME280;65945;53.148;17.956;2023-04-01T01:34:02;99107.73;;;9.17;85.02
77011;BME280;65945;53.148;17.956;2023-04-01T01:36:32;99112.98;;;9.15;85.27
77011;BME280;65945;53.148;17.956;2023-04-01T01:39:04;99112.76;;;9.13;85.24
77011;BME280;65945;53.148;17.956;2023-04-01T01:41:34;99110.39;;;9.11;85.34
77011;BME280;65945;53.148;17.956;2023-04-01T01:44:03;99111.30;;;9.11;85.41
77011;BME280;65945;53.148;17.956;2023-04-01T01:46:31;99113.12;;;9.08;85.62
77011;BME280;65945;53.148;17.956;2023-04-01T01:48:59;99111.05;;;9.04;85.33
77011;BME280;65945;53.148;17.956;2023-04-01T01:51:27;99106.85;;;9.02;85.37
77011;BME280;65945;53.148;17.956;2023-04-01T01:53:55;99108.60;;;8.99;85.43
77011;BME280;65945;53.148;17.956;2023-04-01T01:56:23;99107.30;;;8.95;85.73
77011;BME280;65945;53.148;17.956;2023-04-01T01:58:55;99105.98;;;8.92;85.56
77011;BME280;65945;53.148;17.956;2023-04-01T02:01:27;99108.34;;;8.90;85.79
77011;BME280;65945;53.148;17.956;2023-04-01T02:03:57;99108.34;;;8.88;85.77
77011;BME280;65945;53.148;17.956;2023-04-01T02:06:28;99108.17;;;8.84;85.77
77011;BME280;65945;53.148;17.956;2023-04-01T02:09:02;99110.59;;;8.83;85.59
77011;BME280;65945;53.148;17.956;2023-04-01T02:11:35;99107.02;;;8.80;85.98
77011;BME280;65945;53.148;17.956;2023-04-01T02:14:11;99107.91;;;8.77;86.22
77011;BME280;65945;53.148;17.956;2023-04-01T02:19:42;99109.63;;;8.69;86.35
77011;BME280;65945;53.148;17.956;2023-04-01T02:22:14;99110.76;;;8.66;86.46
77011;BME280;65945;53.148;17.956;2023-04-01T02:24:43;99111.66;;;8.63;86.39
77011;BME280;65945;53.148;17.956;2023-04-01T02:27:11;99110.96;;;8.60;86.44
77011;BME280;65945;53.148;17.956;2023-04-01T02:29:39;99110.58;;;8.60;86.25
77011;BME280;65945;53.148;17.956;2023-04-01T02:32:08;99107.67;;;8.59;86.03
77011;BME280;65945;53.148;17.956;2023-04-01T02:34:36;99107.74;;;8.58;86.00
77011;BME280;65945;53.148;17.956;2023-04-01T02:37:03;99116.82;;;8.58;86.16
77011;BME280;65945;53.148;17.956;2023-04-01T02:39:30;99119.17;;;8.58;86.15
77011;BME280;65945;53.148;17.956;2023-04-01T02:41:56;99120.08;;;8.57;86.28
77011;BME280;65945;53.148;17.956;2023-04-01T02:44:23;99120.70;;;8.56;86.17
77011;BME280;65945;53.148;17.956;2023-04-01T02:46:50;99120.23;;;8.56;86.22
77011;BME280;65945;53.148;17.956;2023-04-01T02:49:16;99124.34;;;8.55;86.27
77011;BME280;65945;53.148;17.956;2023-04-01T02:51:43;99127.68;;;8.54;86.46
77011;BME280;65945;53.148;17.956;2023-04-01T02:54:10;99128.96;;;8.53;86.28
77011;BME280;65945;53.148;17.956;2023-04-01T02:56:36;99129.88;;;8.51;86.27
77011;BME280;65945;53.148;17.956;2023-04-01T02:59:03;99131.15;;;8.51;85.92
77011;BME280;65945;53.148;17.956;2023-04-01T03:01:30;99131.98;;;8.49;86.21
77011;BME280;65945;53.148;17.956;2023-04-01T03:03:56;99133.27;;;8.48;86.22
77011;BME280;65945;53.148;17.956;2023-04-01T03:06:23;99134.87;;;8.46;86.28
77011;BME280;65945;53.148;17.956;2023-04-01T03:08:50;99136.00;;;8.45;86.04
77011;BME280;65945;53.148;17.956;2023-04-01T03:11:16;99138.35;;;8.44;86.40
77011;BME280;65945;53.148;17.956;2023-04-01T03:13:43;99138.73;;;8.43;86.26
77011;BME280;65945;53.148;17.956;2023-04-01T03:16:10;99143.08;;;8.43;86.40
77011;BME280;65945;53.148;17.956;2023-04-01T03:18:37;99141.93;;;8.42;86.48
77011;BME280;65945;53.148;17.956;2023-04-01T03:21:17;99146.86;;;8.40;86.52
77011;BME280;65945;53.148;17.956;2023-04-01T03:23:44;99149.66;;;8.38;86.78
77011;BME280;65945;53.148;17.956;2023-04-01T03:26:11;99146.77;;;8.36;86.61
77011;BME280;65945;53.148;17.956;2023-04-01T03:28:38;99145.38;;;8.33;86.80
77011;BME280;65945;53.148;17.956;2023-04-01T03:31:05;99145.80;;;8.30;86.62
77011;BME280;65945;53.148;17.956;2023-04-01T03:33:33;99152.13;;;8.29;86.64
77011;BME280;65945;53.148;17.956;2023-04-01T03:36:00;99155.06;;;8.27;86.66
77011;BME280;65945;53.148;17.956;2023-04-01T03:38:26;99157.12;;;8.26;86.81
77011;BME280;65945;53.148;17.956;2023-04-01T03:40:53;99162.95;;;8.23;86.97
77011;BME280;65945;53.148;17.956;2023-04-01T03:43:20;99162.39;;;8.22;86.91
77011;BME280;65945;53.148;17.956;2023-04-01T03:45:48;99166.88;;;8.20;86.67
77011;BME280;65945;53.148;17.956;2023-04-01T03:48:16;99166.17;;;8.20;86.54
77011;BME280;65945;53.148;17.956;2023-04-01T03:50:45;99170.27;;;8.17;86.75
77011;BME280;65945;53.148;17.956;2023-04-01T03:53:12;99171.86;;;8.15;86.64
77011;BME280;65945;53.148;17.956;2023-04-01T03:55:40;99176.11;;;8.13;86.66
77011;BME280;65945;53.148;17.956;2023-04-01T03:58:07;99178.50;;;8.10;86.72
77011;BME280;65945;53.148;17.956;2023-04-01T04:00:35;99183.20;;;8.07;86.82
77011;BME280;65945;53.148;17.956;2023-04-01T04:03:02;99182.80;;;8.03;86.85
77011;BME280;65945;53.148;17.956;2023-04-01T04:05:32;99184.36;;;7.99;87.00
77011;BME280;65945;53.148;17.956;2023-04-01T04:07:58;99189.17;;;7.95;87.25
77011;BME280;65945;53.148;17.956;2023-04-01T04:10:25;99191.90;;;7.92;86.72
77011;BME280;65945;53.148;17.956;2023-04-01T04:12:52;99197.90;;;7.90;87.10
77011;BME280;65945;53.148;17.956;2023-04-01T04:15:19;99199.46;;;7.87;87.23
77011;BME280;65945;53.148;17.956;2023-04-01T04:17:46;99203.70;;;7.84;87.20
77011;BME280;65945;53.148;17.956;2023-04-01T04:20:14;99201.70;;;7.82;87.26
77011;BME280;65945;53.148;17.956;2023-04-01T04:22:41;99206.02;;;7.80;87.21
77011;BME280;65945;53.148;17.956;2023-04-01T04:25:08;99207.20;;;7.77;87.45
77011;BME280;65945;53.148;17.956;2023-04-01T04:27:35;99206.25;;;7.72;87.81
77011;BME280;65945;53.148;17.956;2023-04-01T04:30:11;99210.41;;;7.70;87.44
77011;BME280;65945;53.148;17.956;2023-04-01T04:32:38;99213.80;;;7.67;87.64
77011;BME280;65945;53.148;17.956;2023-04-01T04:35:05;99216.11;;;7.63;87.65
77011;BME280;65945;53.148;17.956;2023-04-01T04:37:33;99220.03;;;7.59;87.65
77011;BME280;65945;53.148;17.956;2023-04-01T04:39:59;99222.52;;;7.57;87.83
77011;BME280;65945;53.148;17.956;2023-04-01T04:42:26;99226.15;;;7.56;87.37
77011;BME280;65945;53.148;17.956;2023-04-01T04:44:56;99224.75;;;7.53;87.80
77011;BME280;65945;53.148;17.956;2023-04-01T04:47:23;99227.23;;;7.50;87.62
77011;BME280;65945;53.148;17.956;2023-04-01T04:49:50;99228.09;;;7.46;87.64
77011;BME280;65945;53.148;17.956;2023-04-01T04:52:16;99227.69;;;7.43;87.57
77011;BME280;65945;53.148;17.956;2023-04-01T04:54:43;99230.35;;;7.37;87.80
77011;BME280;65945;53.148;17.956;2023-04-01T04:57:09;99236.00;;;7.33;87.84
77011;BME280;65945;53.148;17.956;2023-04-01T04:59:42;99237.23;;;7.27;88.01
77011;BME280;65945;53.148;17.956;2023-04-01T05:02:12;99237.52;;;7.21;88.14
77011;BME280;65945;53.148;17.956;2023-04-01T05:04:39;99240.67;;;7.17;88.40
77011;BME280;65945;53.148;17.956;2023-04-01T05:07:09;99242.48;;;7.15;88.30
77011;BME280;65945;53.148;17.956;2023-04-01T05:09:36;99245.03;;;7.14;88.13
77011;BME280;65945;53.148;17.956;2023-04-01T05:12:03;99247.91;;;7.12;88.22
77011;BME280;65945;53.148;17.956;2023-04-01T05:14:40;99254.65;;;7.11;87.96
77011;BME280;65945;53.148;17.956;2023-04-01T05:17:10;99256.00;;;7.10;87.98
77011;BME280;65945;53.148;17.956;2023-04-01T05:19:38;99260.66;;;7.06;88.22
77011;BME280;65945;53.148;17.956;2023-04-01T05:22:05;99264.70;;;7.01;88.22
77011;BME280;65945;53.148;17.956;2023-04-01T05:24:32;99263.25;;;6.96;88.08
77011;BME280;65945;53.148;17.956;2023-04-01T05:26:59;99266.11;;;6.93;88.08
77011;BME280;65945;53.148;17.956;2023-04-01T05:29:26;99267.80;;;6.88;88.37
77011;BME280;65945;53.148;17.956;2023-04-01T05:31:59;99269.33;;;6.85;88.21
77011;BME280;65945;53.148;17.956;2023-04-01T05:34:25;99272.11;;;6.83;88.05
77011;BME280;65945;53.148;17.956;2023-04-01T05:36:52;99272.30;;;6.81;88.10
77011;BME280;65945;53.148;17.956;2023-04-01T05:39:19;99273.97;;;6.80;88.10
77011;BME280;65945;53.148;17.956;2023-04-01T05:41:45;99274.48;;;6.78;88.16
77011;BME280;65945;53.148;17.956;2023-04-01T05:44:12;99277.56;;;6.77;88.28
77011;BME280;65945;53.148;17.956;2023-04-01T05:46:39;99279.73;;;6.75;88.05
77011;BME280;65945;53.148;17.956;2023-04-01T05:49:14;99279.23;;;6.73;87.70
77011;BME280;65945;53.148;17.956;2023-04-01T05:51:42;99281.36;;;6.72;87.82
77011;BME280;65945;53.148;17.956;2023-04-01T05:54:08;99288.95;;;6.71;87.74
77011;BME280;65945;53.148;17.956;2023-04-01T05:56:35;99289.58;;;6.72;87.63
77011;BME280;65945;53.148;17.956;2023-04-01T05:59:02;99294.30;;;6.74;87.62
77011;BME280;65945;53.148;17.956;2023-04-01T06:01:29;99297.65;;;6.74;87.60
77011;BME280;65945;53.148;17.956;2023-04-01T06:03:55;99297.14;;;6.76;87.62
77011;BME280;65945;53.148;17.956;2023-04-01T06:06:27;99302.48;;;6.76;87.51
77011;BME280;65945;53.148;17.956;2023-04-01T06:09:00;99302.47;;;6.77;87.32
77011;BME280;65945;53.148;17.956;2023-04-01T06:11:46;99306.64;;;6.76;86.85
77011;BME280;65945;53.148;17.956;2023-04-01T06:17:03;99312.28;;;6.73;86.17
77011;BME280;65945;53.148;17.956;2023-04-01T06:28:02;99323.20;;;6.72;86.02
77011;BME280;65945;53.148;17.956;2023-04-01T06:30:43;99325.05;;;6.74;86.35
77011;BME280;65945;53.148;17.956;2023-04-01T06:35:53;99330.34;;;6.72;85.79
77011;BME280;65945;53.148;17.956;2023-04-01T06:41:29;99335.04;;;6.72;86.15
77011;BME280;65945;53.148;17.956;2023-04-01T06:54:16;99345.43;;;6.71;85.71
77011;BME280;65945;53.148;17.956;2023-04-01T06:57:11;99349.63;;;6.72;85.68
77011;BME280;65945;53.148;17.956;2023-04-01T06:59:44;99348.08;;;6.75;85.62
77011;BME280;65945;53.148;17.956;2023-04-01T07:02:20;99352.69;;;6.78;85.55
77011;BME280;65945;53.148;17.956;2023-04-01T07:04:51;99355.39;;;6.81;85.61
77011;BME280;65945;53.148;17.956;2023-04-01T07:09:58;99359.58;;;6.82;85.21
77011;BME280;65945;53.148;17.956;2023-04-01T07:15:25;99364.09;;;6.84;85.43
77011;BME280;65945;53.148;17.956;2023-04-01T07:17:58;99368.23;;;6.87;85.60
77011;BME280;65945;53.148;17.956;2023-04-01T07:20:29;99374.86;;;6.88;85.24
77011;BME280;65945;53.148;17.956;2023-04-01T07:23:04;99376.16;;;6.88;85.55
77011;BME280;65945;53.148;17.956;2023-04-01T07:25:48;99376.85;;;6.89;85.64
77011;BME280;65945;53.148;17.956;2023-04-01T07:28:37;99375.73;;;6.91;85.30
77011;BME280;65945;53.148;17.956;2023-04-01T07:34:04;99378.00;;;6.94;85.28
77011;BME280;65945;53.148;17.956;2023-04-01T07:37:07;99379.65;;;6.92;85.13
77011;BME280;65945;53.148;17.956;2023-04-01T07:42:42;99390.63;;;6.96;85.14
77011;BME280;65945;53.148;17.956;2023-04-01T07:45:30;99400.18;;;6.95;85.18
77011;BME280;65945;53.148;17.956;2023-04-01T07:48:25;99402.09;;;6.91;84.68
77011;BME280;65945;53.148;17.956;2023-04-01T07:53:42;99406.89;;;6.83;84.58
77011;BME280;65945;53.148;17.956;2023-04-01T07:56:18;99413.42;;;6.78;84.85
77011;BME280;65945;53.148;17.956;2023-04-01T08:05:02;99427.95;;;6.75;84.99
77011;BME280;65945;53.148;17.956;2023-04-01T08:07:48;99434.78;;;6.74;84.70
77011;BME280;65945;53.148;17.956;2023-04-01T08:10:50;99434.29;;;6.73;84.62
77011;BME280;65945;53.148;17.956;2023-04-01T08:17:16;99441.81;;;6.72;84.98
77011;BME280;65945;53.148;17.956;2023-04-01T08:22:49;99453.90;;;6.78;85.03
77011;BME280;65945;53.148;17.956;2023-04-01T08:25:25;99455.08;;;6.80;84.33
77011;BME280;65945;53.148;17.956;2023-04-01T08:27:59;99455.68;;;6.84;84.33
77011;BME280;65945;53.148;17.956;2023-04-01T08:30:40;99461.09;;;6.90;84.74
77011;BME280;65945;53.148;17.956;2023-04-01T08:33:17;99465.44;;;6.95;84.39
77011;BME280;65945;53.148;17.956;2023-04-01T08:35:55;99466.11;;;6.99;83.84
77011;BME280;65945;53.148;17.956;2023-04-01T08:38:38;99466.96;;;7.00;83.42
77011;BME280;65945;53.148;17.956;2023-04-01T08:50:05;99476.67;;;7.18;82.85
77011;BME280;65945;53.148;17.956;2023-04-01T08:53:05;99476.86;;;7.19;82.39
77011;BME280;65945;53.148;17.956;2023-04-01T08:55:46;99482.10;;;7.19;82.50
77011;BME280;65945;53.148;17.956;2023-04-01T08:58:22;99485.56;;;7.22;82.71
77011;BME280;65945;53.148;17.956;2023-04-01T09:12:50;99502.30;;;7.28;81.82
77011;BME280;65945;53.148;17.956;2023-04-01T09:21:15;99505.20;;;7.38;81.71
77011;BME280;65945;53.148;17.956;2023-04-01T09:32:46;99517.67;;;7.63;81.15
77011;BME280;65945;53.148;17.956;2023-04-01T09:58:05;99544.15;;;8.04;79.08
77011;BME280;65945;53.148;17.956;2023-04-01T10:01:25;99549.31;;;8.09;78.72
77011;BME280;65945;53.148;17.956;2023-04-01T10:09:58;99561.14;;;8.26;79.44
77011;BME280;65945;53.148;17.956;2023-04-01T10:15:41;99566.27;;;8.29;79.05
77011;BME280;65945;53.148;17.956;2023-04-01T10:36:43;99573.14;;;8.36;77.52
77011;BME280;65945;53.148;17.956;2023-04-01T10:49:10;99582.48;;;8.41;77.75
77011;BME280;65945;53.148;17.956;2023-04-01T10:55:44;99589.23;;;8.43;78.23
77011;BME280;65945;53.148;17.956;2023-04-01T10:58:56;99590.17;;;8.52;78.18
77011;BME280;65945;53.148;17.956;2023-04-01T11:05:51;99595.25;;;8.55;77.18
77011;BME280;65945;53.148;17.956;2023-04-01T11:08:53;99597.04;;;8.47;76.99
77011;BME280;65945;53.148;17.956;2023-04-01T11:23:21;99614.09;;;8.16;77.48
77011;BME280;65945;53.148;17.956;2023-04-01T11:26:03;99619.90;;;8.12;77.95
77011;BME280;65945;53.148;17.956;2023-04-01T11:46:27;99648.66;;;7.88;77.96
77011;BME280;65945;53.148;17.956;2023-04-01T11:49:25;99652.29;;;7.86;78.31
77011;BME280;65945;53.148;17.956;2023-04-01T11:52:36;99656.04;;;7.84;78.13
77011;BME280;65945;53.148;17.956;2023-04-01T11:55:24;99660.51;;;7.86;78.53
77011;BME280;65945;53.148;17.956;2023-04-01T12:12:20;99673.73;;;7.90;76.81
77011;BME280;65945;53.148;17.956;2023-04-01T12:15:16;99675.27;;;7.91;77.10
77011;BME280;65945;53.148;17.956;2023-04-01T12:17:46;99679.41;;;7.99;77.63
77011;BME280;65945;53.148;17.956;2023-04-01T12:20:56;99676.55;;;8.05;77.08
77011;BME280;65945;53.148;17.956;2023-04-01T12:23:44;99683.02;;;8.06;77.18
77011;BME280;65945;53.148;17.956;2023-04-01T12:32:14;99703.85;;;8.09;75.68
77011;BME280;65945;53.148;17.956;2023-04-01T12:37:59;99712.94;;;7.97;75.01
77011;BME280;65945;53.148;17.956;2023-04-01T12:45:54;99712.64;;;7.97;74.81
77011;BME280;65945;53.148;17.956;2023-04-01T12:54:22;99716.95;;;8.09;74.88
77011;BME280;65945;53.148;17.956;2023-04-01T13:00:23;99727.43;;;8.17;73.83
77011;BME280;65945;53.148;17.956;2023-04-01T13:03:16;99733.42;;;8.24;74.54
77011;BME280;65945;53.148;17.956;2023-04-01T13:08:39;99744.04;;;8.25;73.44
77011;BME280;65945;53.148;17.956;2023-04-01T13:11:22;99743.83;;;8.26;73.65
77011;BME280;65945;53.148;17.956;2023-04-01T13:14:15;99751.98;;;8.24;73.04
77011;BME280;65945;53.148;17.956;2023-04-01T13:16:56;99753.95;;;8.23;73.42
77011;BME280;65945;53.148;17.956;2023-04-01T13:19:35;99757.43;;;8.22;72.94
77011;BME280;65945;53.148;17.956;2023-04-01T13:22:23;99754.25;;;8.19;73.35
77011;BME280;65945;53.148;17.956;2023-04-01T13:27:38;99762.98;;;8.13;73.22
77011;BME280;65945;53.148;17.956;2023-04-01T13:30:36;99760.26;;;8.09;73.19
77011;BME280;65945;53.148;17.956;2023-04-01T13:33:38;99763.54;;;8.01;73.00
77011;BME280;65945;53.148;17.956;2023-04-01T13:36:28;99765.61;;;7.98;73.94
77011;BME280;65945;53.148;17.956;2023-04-01T13:44:59;99772.80;;;8.13;74.40
77011;BME280;65945;53.148;17.956;2023-04-01T13:50:22;99782.05;;;8.20;74.60
77011;BME280;65945;53.148;17.956;2023-04-01T13:53:08;99783.54;;;8.22;74.33
77011;BME280;65945;53.148;17.956;2023-04-01T13:55:58;99786.81;;;8.22;74.29
77011;BME280;65945;53.148;17.956;2023-04-01T13:58:58;99794.38;;;8.20;73.73
77011;BME280;65945;53.148;17.956;2023-04-01T14:01:54;99798.77;;;8.10;73.28
77011;BME280;65945;53.148;17.956;2023-04-01T14:04:59;99812.63;;;8.02;74.06
77011;BME280;65945;53.148;17.956;2023-04-01T14:07:50;99818.13;;;7.95;73.79
77011;BME280;65945;53.148;17.956;2023-04-01T14:13:12;99823.94;;;7.76;73.77
77011;BME280;65945;53.148;17.956;2023-04-01T14:16:04;99825.81;;;7.67;73.41
77011;BME280;65945;53.148;17.956;2023-04-01T14:19:18;99827.56;;;7.56;73.70
77011;BME280;65945;53.148;17.956;2023-04-01T14:22:13;99825.21;;;7.48;73.90
77011;BME280;65945;53.148;17.956;2023-04-01T14:27:43;99836.44;;;7.37;74.07
77011;BME280;65945;53.148;17.956;2023-04-01T14:33:32;99837.35;;;7.23;74.08
77011;BME280;65945;53.148;17.956;2023-04-01T14:42:11;99849.44;;;7.16;74.49
77011;BME280;65945;53.148;17.956;2023-04-01T14:47:39;99858.18;;;7.06;74.38
77011;BME280;65945;53.148;17.956;2023-04-01T14:50:20;99860.63;;;7.04;74.49
77011;BME280;65945;53.148;17.956;2023-04-01T14:53:12;99862.00;;;7.01;74.77
77011;BME280;65945;53.148;17.956;2023-04-01T14:58:14;99872.77;;;7.00;74.66
77011;BME280;65945;53.148;17.956;2023-04-01T15:00:51;99872.34;;;6.95;74.31
77011;BME280;65945;53.148;17.956;2023-04-01T15:03:37;99879.09;;;6.91;74.50
77011;BME280;65945;53.148;17.956;2023-04-01T15:11:53;99887.92;;;6.76;74.23
77011;BME280;65945;53.148;17.956;2023-04-01T15:28:36;99917.30;;;6.52;75.01
77011;BME280;65945;53.148;17.956;2023-04-01T15:31:37;99924.15;;;6.47;74.77
77011;BME280;65945;53.148;17.956;2023-04-01T15:37:00;99927.83;;;6.37;74.98
77011;BME280;65945;53.148;17.956;2023-04-01T15:45:48;99944.80;;;6.27;75.53
77011;BME280;65945;53.148;17.956;2023-04-01T15:48:35;99946.66;;;6.24;75.62
77011;BME280;65945;53.148;17.956;2023-04-01T15:54:06;99951.32;;;6.19;75.78
77011;BME280;65945;53.148;17.956;2023-04-01T15:57:09;99956.59;;;6.15;75.63
77011;BME280;65945;53.148;17.956;2023-04-01T16:00:09;99961.29;;;6.10;75.64
77011;BME280;65945;53.148;17.956;2023-04-01T16:05:37;99966.27;;;5.95;75.76
77011;BME280;65945;53.148;17.956;2023-04-01T16:13:48;99981.63;;;5.70;75.53
77011;BME280;65945;53.148;17.956;2023-04-01T16:21:49;99999.39;;;5.61;76.32
77011;BME280;65945;53.148;17.956;2023-04-01T16:24:39;100000.56;;;5.57;76.36
77011;BME280;65945;53.148;17.956;2023-04-01T16:32:50;100015.10;;;5.44;76.98
77011;BME280;65945;53.148;17.956;2023-04-01T16:35:40;100022.36;;;5.41;77.00
77011;BME280;65945;53.148;17.956;2023-04-01T16:40:47;100028.42;;;5.39;77.17
77011;BME280;65945;53.148;17.956;2023-04-01T16:43:30;100033.41;;;5.39;77.04
77011;BME280;65945;53.148;17.956;2023-04-01T16:51:48;100049.21;;;5.31;77.09
77011;BME280;65945;53.148;17.956;2023-04-01T16:54:28;100059.88;;;5.23;77.23
77011;BME280;65945;53.148;17.956;2023-04-01T17:02:43;100070.15;;;5.05;77.33
77011;BME280;65945;53.148;17.956;2023-04-01T17:05:13;100073.98;;;5.00;77.01
77011;BME280;65945;53.148;17.956;2023-04-01T17:08:13;100077.79;;;4.96;76.87
77011;BME280;65945;53.148;17.956;2023-04-01T17:13:29;100089.79;;;4.88;76.90
77011;BME280;65945;53.148;17.956;2023-04-01T17:16:23;100091.80;;;4.83;76.86
77011;BME280;65945;53.148;17.956;2023-04-01T17:19:15;100094.95;;;4.78;76.82
77011;BME280;65945;53.148;17.956;2023-04-01T17:22:25;100096.22;;;4.76;77.29
77011;BME280;65945;53.148;17.956;2023-04-01T17:28:21;100101.77;;;4.74;77.56
77011;BME280;65945;53.148;17.956;2023-04-01T17:42:45;100135.34;;;4.61;77.18
77011;BME280;65945;53.148;17.956;2023-04-01T17:48:14;100141.90;;;4.52;77.37
77011;BME280;65945;53.148;17.956;2023-04-01T17:56:29;100155.78;;;4.41;77.69
77011;BME280;65945;53.148;17.956;2023-04-01T18:02:15;100166.08;;;4.33;78.31
77011;BME280;65945;53.148;17.956;2023-04-01T18:10:25;100180.75;;;4.21;78.85
77011;BME280;65945;53.148;17.956;2023-04-01T18:16:02;100184.73;;;4.15;79.43
77011;BME280;65945;53.148;17.956;2023-04-01T18:18:46;100190.40;;;4.13;79.32
77011;BME280;65945;53.148;17.956;2023-04-01T18:26:30;100209.20;;;4.07;79.78
77011;BME280;65945;53.148;17.956;2023-04-01T18:31:33;100212.98;;;3.97;79.88
77011;BME280;65945;53.148;17.956;2023-04-01T18:34:10;100216.25;;;3.94;80.51
77011;BME280;65945;53.148;17.956;2023-04-01T18:36:53;100214.57;;;3.86;80.71
77011;BME280;65945;53.148;17.956;2023-04-01T18:39:30;100218.80;;;3.83;80.74
77011;BME280;65945;53.148;17.956;2023-04-01T18:50:27;100236.17;;;3.70;81.26
77011;BME280;65945;53.148;17.956;2023-04-01T18:56:05;100242.13;;;3.63;81.89
77011;BME280;65945;53.148;17.956;2023-04-01T19:01:38;100252.49;;;3.55;82.19
77011;BME280;65945;53.148;17.956;2023-04-01T19:06:52;100257.76;;;3.49;82.35
77011;BME280;65945;53.148;17.956;2023-04-01T19:20:53;100275.22;;;3.42;82.43
77011;BME280;65945;53.148;17.956;2023-04-01T19:26:39;100286.84;;;3.42;82.57
77011;BME280;65945;53.148;17.956;2023-04-01T19:32:05;100297.23;;;3.35;82.59
77011;BME280;65945;53.148;17.956;2023-04-01T19:34:57;100299.77;;;3.32;82.56
77011;BME280;65945;53.148;17.956;2023-04-01T19:42:45;100311.80;;;3.25;82.78
77011;BME280;65945;53.148;17.956;2023-04-01T19:48:20;100321.77;;;3.22;83.26
77011;BME280;65945;53.148;17.956;2023-04-01T19:50:56;100323.27;;;3.20;83.24
77011;BME280;65945;53.148;17.956;2023-04-01T19:56:18;100324.98;;;3.18;83.35
77011;BME280;65945;53.148;17.956;2023-04-01T20:01:28;100328.80;;;3.16;83.91
77011;BME280;65945;53.148;17.956;2023-04-01T20:04:10;100332.56;;;3.13;83.72
77011;BME280;65945;53.148;17.956;2023-04-01T20:06:54;100336.20;;;3.12;83.76
77011;BME280;65945;53.148;17.956;2023-04-01T20:09:41;100342.20;;;3.11;83.61
77011;BME280;65945;53.148;17.956;2023-04-01T20:12:17;100347.06;;;3.11;83.66
77011;BME280;65945;53.148;17.956;2023-04-01T20:14:51;100347.42;;;3.10;83.54
77011;BME280;65945;53.148;17.956;2023-04-01T20:23:16;100362.96;;;3.07;83.81
77011;BME280;65945;53.148;17.956;2023-04-01T20:26:01;100364.93;;;3.08;83.68
77011;BME280;65945;53.148;17.956;2023-04-01T20:28:36;100366.90;;;3.08;83.65
77011;BME280;65945;53.148;17.956;2023-04-01T20:37:06;100375.45;;;3.09;83.82
77011;BME280;65945;53.148;17.956;2023-04-01T20:45:33;100379.14;;;3.07;83.43
77011;BME280;65945;53.148;17.956;2023-04-01T20:51:04;100384.67;;;3.06;82.88
77011;BME280;65945;53.148;17.956;2023-04-01T20:56:48;100387.91;;;3.08;82.63
77011;BME280;65945;53.148;17.956;2023-04-01T21:02:10;100392.45;;;3.08;82.66
77011;BME280;65945;53.148;17.956;2023-04-01T21:05:15;100392.14;;;3.09;82.54
77011;BME280;65945;53.148;17.956;2023-04-01T21:31:04;100429.73;;;3.01;82.11
77011;BME280;65945;53.148;17.956;2023-04-01T21:36:43;100431.31;;;2.99;81.86
77011;BME280;65945;53.148;17.956;2023-04-01T21:50:47;100436.52;;;3.02;81.65
77011;BME280;65945;53.148;17.956;2023-04-01T21:56:37;100443.67;;;3.03;81.76
77011;BME280;65945;53.148;17.956;2023-04-01T22:07:31;100449.95;;;3.05;81.74
77011;BME280;65945;53.148;17.956;2023-04-01T22:12:54;100455.48;;;3.06;81.75
77011;BME280;65945;53.148;17.956;2023-04-01T22:15:43;100457.26;;;3.05;81.66
77011;BME280;65945;53.148;17.956;2023-04-01T22:18:41;100456.45;;;3.05;81.77
77011;BME280;65945;53.148;17.956;2023-04-01T22:29:24;100474.21;;;3.03;81.91
77011;BME280;65945;53.148;17.956;2023-04-01T22:32:32;100475.77;;;3.02;81.98